createdAt,value
2022-08-14T00:00:06.475Z,5.65
2022-08-14T00:03:20.996Z,5.00
2022-08-14T00:06:31.824Z,6.88
2022-08-14T00:09:39.570Z,7.78
2022-08-14T00:12:59.016Z,5.63
2022-08-14T00:16:02.345Z,6.85
2022-08-14T00:19:18.497Z,7.95
2022-08-14T00:22:44.412Z,6.05
2022-08-14T00:25:54.053Z,5.78
2022-08-14T00:29:08.057Z,6.30
2022-08-14T00:32:52.706Z,8.15
2022-08-14T00:36:34.336Z,7.20
2022-08-14T00:38:56.304Z,6.00
2022-08-14T00:41:59.926Z,14.38
2022-08-14T00:45:04.235Z,9.20
2022-08-14T00:48:07.163Z,6.82
2022-08-14T00:51:10.153Z,7.43
2022-08-14T00:54:21.712Z,6.80
2022-08-14T00:57:27.843Z,6.43
2022-08-14T01:00:43.032Z,7.57
2022-08-14T01:03:53.897Z,7.70
2022-08-14T01:06:56.125Z,8.10
2022-08-14T01:10:01.778Z,7.15
2022-08-14T01:13:05.510Z,7.40
2022-08-14T01:16:11.090Z,7.07
2022-08-14T01:19:35.955Z,9.43
2022-08-14T01:22:40.306Z,6.90
2022-08-14T01:25:45.968Z,8.65
2022-08-14T01:28:56.920Z,6.47
2022-08-14T01:35:20.774Z,7.20
2022-08-14T01:38:34.441Z,7.78
2022-08-14T01:41:41.263Z,8.02
2022-08-14T01:44:43.732Z,11.15
2022-08-14T01:47:52.208Z,7.90
2022-08-14T01:51:18.991Z,9.27
2022-08-14T01:54:25.022Z,8.63
2022-08-14T01:58:00.295Z,8.50
2022-08-14T02:01:06.019Z,8.05
2022-08-14T02:04:40.793Z,8.52
2022-08-14T02:07:44.629Z,9.52
2022-08-14T02:11:17.131Z,10.40
2022-08-14T02:14:31.759Z,9.07
2022-08-14T02:17:34.890Z,12.00
2022-08-14T02:20:38.008Z,8.77
2022-08-14T02:23:40.691Z,13.82
2022-08-14T02:28:20.227Z,9.68
2022-08-14T02:30:13.767Z,8.77
2022-08-14T02:33:16.186Z,10.10
2022-08-14T02:37:02.831Z,8.90
2022-08-14T02:39:42.396Z,10.48
2022-08-14T02:42:54.793Z,9.88
2022-08-14T02:46:03.230Z,8.63
2022-08-14T02:49:06.646Z,9.00
2022-08-14T02:52:56.303Z,10.88
2022-08-14T02:55:33.099Z,8.05
2022-08-14T02:58:41.840Z,10.27
2022-08-14T03:01:51.033Z,7.75
2022-08-14T03:04:56.970Z,10.35
2022-08-14T03:08:05.281Z,9.90
2022-08-14T03:11:13.001Z,7.95
2022-08-14T03:14:18.040Z,11.00
2022-08-14T03:17:21.025Z,8.63
2022-08-14T03:20:25.061Z,8.65
2022-08-14T03:23:28.265Z,10.30
2022-08-14T03:26:31.794Z,10.77
2022-08-14T03:29:36.240Z,9.40
2022-08-14T03:32:44.479Z,9.45
2022-08-14T03:36:05.687Z,10.68
2022-08-14T03:39:21.538Z,9.25
2022-08-14T03:42:25.308Z,11.98
2022-08-14T03:45:48.000Z,9.27
2022-08-14T03:48:54.107Z,11.82
2022-08-14T03:51:57.466Z,9.68
2022-08-14T03:55:00.522Z,12.07
2022-08-14T03:58:02.878Z,10.40
2022-08-14T04:01:07.019Z,11.65
2022-08-14T04:04:09.690Z,12.27
2022-08-14T04:07:12.345Z,11.65
2022-08-14T04:10:17.096Z,12.35
2022-08-14T04:13:20.087Z,11.40
2022-08-14T04:16:31.478Z,13.55
2022-08-14T04:19:36.530Z,9.63
2022-08-14T04:22:43.702Z,12.05
2022-08-14T04:25:47.182Z,9.80
2022-08-14T04:28:58.794Z,12.20
2022-08-14T04:32:57.750Z,9.65
2022-08-14T04:35:55.580Z,24.92
2022-08-14T04:39:18.554Z,10.73
2022-08-14T04:42:39.386Z,10.93
2022-08-14T04:45:51.166Z,10.50
2022-08-14T04:48:59.682Z,10.63
2022-08-14T04:52:15.507Z,15.27
2022-08-14T04:55:25.477Z,10.85
2022-08-14T04:58:32.851Z,11.10
2022-08-14T05:01:40.229Z,11.23
2022-08-14T05:04:45.303Z,15.40
2022-08-14T05:08:09.600Z,10.73
2022-08-14T05:11:13.376Z,14.13
2022-08-14T05:14:34.084Z,13.10
2022-08-14T05:17:43.485Z,11.45
2022-08-14T05:21:58.349Z,10.98
2022-08-14T05:24:17.418Z,11.30
2022-08-14T05:27:23.320Z,10.50
2022-08-14T05:30:26.453Z,11.95
2022-08-14T05:33:31.106Z,11.02
2022-08-14T05:36:36.216Z,10.85
2022-08-14T05:39:39.627Z,11.18
2022-08-14T05:42:46.450Z,12.57
2022-08-14T05:45:50.284Z,12.93
2022-08-14T05:48:54.222Z,10.68
2022-08-14T05:51:57.788Z,12.30
2022-08-14T05:55:00.720Z,11.20
2022-08-14T05:58:04.605Z,12.60
2022-08-14T06:01:09.858Z,11.07
2022-08-14T06:04:12.615Z,12.52
2022-08-14T06:07:16.588Z,11.27
2022-08-14T06:10:19.147Z,12.00
2022-08-14T06:13:22.176Z,10.52
2022-08-14T06:16:33.874Z,12.75
2022-08-14T06:19:36.142Z,10.27
2022-08-14T06:22:39.916Z,11.18
2022-08-14T06:25:44.588Z,10.27
2022-08-14T06:28:55.102Z,9.63
2022-08-14T06:32:00.626Z,11.18
2022-08-14T06:35:21.106Z,9.98
2022-08-14T06:38:24.779Z,23.90
2022-08-14T06:41:58.091Z,8.70
2022-08-14T06:44:49.581Z,11.05
2022-08-14T06:47:54.656Z,8.88
2022-08-14T06:50:58.025Z,8.80
2022-08-14T06:54:02.256Z,9.23
2022-08-14T06:57:04.996Z,8.32
2022-08-14T07:00:22.150Z,10.98
2022-08-14T07:03:43.492Z,9.27
2022-08-14T07:06:47.729Z,9.10
2022-08-14T07:09:51.962Z,9.30
2022-08-14T07:13:02.109Z,9.32
2022-08-14T07:16:07.346Z,8.07
2022-08-14T07:19:09.901Z,10.63
2022-08-14T07:22:17.559Z,8.95
2022-08-14T07:28:43.603Z,8.43
2022-08-14T07:31:46.433Z,8.13
2022-08-14T07:34:49.339Z,9.25
2022-08-14T07:37:52.689Z,11.15
2022-08-14T07:40:57.055Z,8.55
2022-08-14T07:44:22.412Z,8.55
2022-08-14T07:47:22.736Z,8.30
2022-08-14T07:50:27.764Z,8.50
2022-08-14T07:53:40.372Z,9.65
2022-08-14T07:56:48.951Z,8.32
2022-08-14T08:02:57.165Z,7.97
2022-08-14T08:06:02.891Z,9.05
2022-08-14T08:09:12.896Z,9.02
2022-08-14T08:12:20.548Z,8.80
2022-08-14T08:15:23.638Z,7.80
2022-08-14T08:18:29.609Z,7.10
2022-08-14T08:21:35.640Z,7.50
2022-08-14T08:24:58.373Z,7.00
2022-08-14T08:28:17.050Z,9.35
2022-08-14T08:31:25.192Z,7.45
2022-08-14T08:34:45.238Z,7.22
2022-08-14T08:37:48.615Z,7.85
2022-08-14T08:41:03.734Z,8.23
2022-08-14T08:44:31.169Z,8.15
2022-08-14T08:47:38.806Z,7.88
2022-08-14T08:53:42.305Z,8.43
2022-08-14T08:56:46.616Z,9.85
2022-08-14T08:59:54.843Z,7.70
2022-08-14T09:03:04.049Z,7.65
2022-08-14T09:06:59.588Z,7.47
2022-08-14T09:09:33.933Z,8.25
2022-08-14T09:12:55.006Z,7.35
2022-08-14T09:16:18.309Z,7.10
2022-08-14T09:19:21.561Z,7.95
2022-08-14T09:22:35.198Z,6.43
2022-08-14T09:25:58.731Z,7.82
2022-08-14T09:29:03.945Z,7.38
2022-08-14T09:32:14.447Z,8.80
2022-08-14T09:35:41.288Z,7.38
2022-08-14T09:38:47.961Z,6.07
2022-08-14T09:42:20.822Z,6.90
2022-08-14T09:45:40.326Z,7.28
2022-08-14T09:48:59.935Z,5.78
2022-08-14T09:52:06.105Z,5.00
2022-08-14T09:55:36.783Z,6.10
2022-08-14T09:58:46.077Z,5.30
2022-08-14T10:01:53.207Z,4.68
2022-08-14T10:05:01.754Z,6.38
2022-08-14T10:08:04.861Z,5.70
2022-08-14T10:11:19.323Z,7.78
2022-08-14T10:14:35.079Z,5.15
2022-08-14T10:17:38.953Z,8.15
2022-08-14T10:20:53.087Z,4.18
2022-08-14T10:23:55.339Z,4.82
2022-08-14T10:27:01.022Z,5.60
2022-08-14T10:30:05.044Z,5.97
2022-08-14T10:33:25.841Z,4.80
2022-08-14T10:36:35.212Z,5.00
2022-08-14T10:40:01.227Z,6.45
2022-08-14T10:43:23.010Z,5.35
2022-08-14T10:47:41.117Z,5.25
2022-08-14T10:49:56.929Z,5.35
2022-08-14T10:53:05.460Z,5.60
2022-08-14T10:56:21.430Z,4.50
2022-08-14T10:59:43.349Z,6.25
2022-08-14T11:02:58.043Z,5.43
2022-08-14T11:06:14.497Z,4.90
2022-08-14T11:09:18.127Z,4.50
2022-08-14T11:12:35.050Z,4.78
2022-08-14T11:15:41.618Z,4.65
2022-08-14T11:18:45.887Z,5.03
2022-08-14T11:21:56.216Z,5.10
2022-08-14T11:25:02.946Z,4.60
2022-08-14T11:28:10.872Z,5.07
2022-08-14T11:31:14.045Z,5.22
2022-08-14T11:34:32.499Z,3.97
2022-08-14T11:37:40.423Z,4.75
2022-08-14T11:40:46.839Z,4.03
2022-08-14T11:43:58.095Z,4.45
2022-08-14T11:47:06.956Z,3.80
2022-08-14T11:50:14.353Z,4.35
2022-08-14T11:53:41.908Z,4.40
2022-08-14T11:56:49.729Z,4.63
2022-08-14T12:00:01.280Z,5.38
2022-08-14T12:03:06.724Z,4.40
2022-08-14T12:06:29.267Z,5.07
2022-08-14T12:09:34.533Z,3.88
2022-08-14T12:12:38.338Z,3.97
2022-08-14T12:15:49.637Z,4.05
2022-08-14T12:18:58.046Z,4.25
2022-08-14T12:22:00.465Z,4.05
2022-08-14T12:25:11.037Z,4.05
2022-08-14T12:28:26.972Z,5.57
2022-08-14T12:31:44.898Z,4.22
2022-08-14T12:34:54.352Z,4.00
2022-08-14T12:37:56.654Z,3.40
2022-08-14T12:40:59.176Z,4.10
2022-08-14T12:44:04.363Z,4.57
2022-08-14T12:47:16.734Z,4.45
2022-08-14T12:50:20.285Z,5.00
2022-08-14T12:53:36.316Z,5.00
2022-08-14T12:56:40.914Z,6.22
2022-08-14T12:59:45.388Z,4.47
2022-08-14T13:02:54.848Z,5.00
2022-08-14T13:05:57.920Z,5.32
2022-08-14T13:09:04.316Z,4.53
2022-08-14T13:12:32.451Z,4.55
2022-08-14T13:15:40.367Z,4.13
2022-08-14T13:18:46.861Z,4.85
2022-08-14T13:21:58.811Z,5.03
2022-08-14T13:25:09.852Z,3.88
2022-08-14T13:28:33.085Z,3.92
2022-08-14T13:31:39.386Z,4.28
2022-08-14T13:34:45.398Z,4.10
2022-08-14T13:37:49.738Z,4.53
2022-08-14T13:40:55.914Z,4.20
2022-08-14T13:43:59.952Z,3.58
2022-08-14T13:47:06.826Z,10.10
2022-08-14T13:50:15.300Z,4.32
2022-08-14T13:53:21.289Z,4.70
2022-08-14T13:56:36.130Z,5.22
2022-08-14T13:59:46.111Z,4.88
2022-08-14T14:02:56.300Z,4.25
2022-08-14T14:06:00.272Z,4.30
2022-08-14T14:09:06.395Z,3.65
2022-08-14T14:12:38.011Z,4.38
2022-08-14T14:15:48.635Z,3.85
2022-08-14T14:19:09.379Z,3.88
2022-08-14T14:23:01.801Z,3.60
2022-08-14T14:25:48.645Z,3.60
2022-08-14T14:28:57.050Z,3.78
2022-08-14T14:32:00.626Z,3.90
2022-08-14T14:35:06.746Z,3.22
2022-08-14T14:38:13.674Z,4.50
2022-08-14T14:41:21.100Z,3.50
2022-08-14T14:44:29.380Z,3.95
2022-08-14T14:47:33.351Z,3.40
2022-08-14T14:50:39.754Z,3.88
2022-08-14T14:53:44.446Z,4.18
2022-08-14T14:56:51.625Z,3.03
2022-08-14T14:59:55.754Z,2.80
2022-08-14T15:02:59.547Z,3.10
2022-08-14T15:06:03.733Z,2.63
2022-08-14T15:09:08.896Z,2.33
2022-08-14T15:12:34.261Z,3.00
2022-08-14T15:15:37.813Z,3.00
2022-08-14T15:18:46.924Z,2.92
2022-08-14T15:21:52.951Z,3.63
2022-08-14T15:24:56.282Z,3.35
2022-08-14T15:27:59.220Z,4.35
2022-08-14T15:31:04.156Z,3.85
2022-08-14T15:34:43.939Z,3.47
2022-08-14T15:37:42.090Z,3.63
2022-08-14T15:40:51.507Z,4.45
2022-08-14T15:43:59.272Z,3.70
2022-08-14T15:47:06.916Z,4.03
2022-08-14T15:50:09.969Z,3.95
2022-08-14T15:53:13.759Z,3.53
2022-08-14T15:56:32.750Z,3.92
2022-08-14T16:00:40.085Z,4.00
2022-08-14T16:03:42.527Z,3.90
2022-08-14T16:06:54.643Z,4.65
2022-08-14T16:10:27.928Z,4.05
2022-08-14T16:13:39.740Z,4.88
2022-08-14T16:16:49.767Z,4.47
2022-08-14T16:20:01.544Z,5.50
2022-08-14T16:26:29.945Z,4.72
2022-08-14T16:29:37.997Z,3.92
2022-08-14T16:32:54.879Z,5.07
2022-08-14T16:36:04.910Z,4.60
2022-08-14T16:39:28.614Z,4.28
2022-08-14T16:40:24.217Z,4.50
2022-08-14T16:42:39.175Z,3.90
2022-08-14T16:45:57.198Z,4.40
2022-08-14T16:49:00.764Z,5.60
2022-08-14T16:52:10.135Z,4.65
2022-08-14T16:55:30.462Z,7.13
2022-08-14T16:58:35.179Z,4.65
2022-08-14T17:01:41.170Z,5.75
2022-08-14T17:04:49.076Z,6.90
2022-08-14T17:08:31.848Z,6.03
2022-08-14T17:11:37.358Z,6.45
2022-08-14T17:15:01.535Z,9.10
2022-08-14T17:18:04.186Z,5.43
2022-08-14T17:21:19.452Z,6.20
2022-08-14T17:24:58.318Z,16.38
2022-08-14T17:31:59.079Z,14.55
2022-08-14T17:34:57.862Z,28.23
2022-08-14T17:38:38.757Z,6.07
2022-08-14T17:41:36.308Z,10.05
2022-08-14T17:44:45.165Z,6.18
2022-08-14T17:47:50.489Z,5.75
2022-08-14T17:51:01.254Z,7.43
2022-08-14T17:54:05.357Z,8.23
2022-08-14T17:57:13.071Z,7.95
2022-08-14T18:00:17.467Z,7.13
2022-08-14T18:03:50.677Z,6.80
2022-08-14T18:06:57.714Z,5.63
2022-08-14T18:10:51.926Z,6.75
2022-08-14T18:13:52.028Z,7.05
2022-08-14T18:16:55.906Z,8.63
2022-08-14T18:20:01.456Z,6.40
2022-08-14T18:23:18.405Z,7.07
2022-08-14T18:26:36.185Z,7.90
2022-08-14T18:29:42.737Z,8.10
2022-08-14T18:32:47.556Z,11.52
2022-08-14T18:36:47.702Z,8.73
2022-08-14T18:39:23.473Z,10.85
2022-08-14T18:42:44.606Z,8.30
2022-08-14T18:45:59.226Z,8.20
2022-08-14T18:49:13.709Z,13.05
2022-08-14T18:52:18.860Z,14.32
2022-08-14T18:55:54.072Z,7.55
2022-08-14T18:58:57.055Z,6.53
2022-08-14T19:02:46.922Z,10.02
2022-08-14T19:05:56.832Z,6.22
2022-08-14T19:09:00.961Z,7.75
2022-08-14T19:12:03.704Z,6.95
2022-08-14T19:15:07.981Z,8.50
2022-08-14T19:18:26.510Z,8.30
2022-08-14T19:21:32.518Z,10.02
2022-08-14T19:24:44.235Z,6.22
2022-08-14T19:28:31.189Z,6.90
2022-08-14T19:31:42.023Z,7.72
2022-08-14T19:34:52.155Z,7.20
2022-08-14T19:37:56.318Z,6.83
2022-08-14T19:41:01.776Z,8.55
2022-08-14T19:44:31.597Z,7.72
2022-08-14T19:47:38.882Z,13.70
2022-08-14T19:50:46.269Z,8.27
2022-08-14T19:53:56.408Z,13.65
2022-08-14T19:57:02.336Z,9.48
2022-08-14T20:00:28.529Z,8.57
2022-08-14T20:04:00.565Z,15.02
2022-08-14T20:07:04.373Z,10.25
2022-08-14T20:11:03.429Z,10.57
2022-08-14T20:13:56.563Z,11.52
2022-08-14T20:17:05.979Z,10.05
2022-08-14T20:20:30.833Z,12.48
2022-08-14T20:23:38.207Z,14.63
2022-08-14T20:26:42.351Z,15.80
2022-08-14T20:30:35.189Z,14.30
2022-08-14T20:33:48.637Z,12.55
2022-08-14T20:37:01.050Z,20.90
2022-08-14T20:40:23.751Z,20.95
2022-08-14T20:43:46.652Z,25.25
2022-08-14T20:46:50.590Z,37.47
2022-08-14T20:50:16.663Z,22.30
2022-08-14T20:53:34.445Z,14.10
2022-08-14T20:56:40.583Z,18.17
2022-08-14T20:59:44.580Z,17.17
2022-08-14T21:02:52.268Z,12.73
2022-08-14T21:05:56.828Z,13.40
2022-08-14T21:09:04.471Z,17.58
2022-08-14T21:12:07.611Z,13.80
2022-08-14T21:15:32.061Z,12.30
2022-08-14T21:18:47.751Z,12.27
2022-08-14T21:21:54.830Z,11.18
2022-08-14T21:25:02.344Z,9.88
2022-08-14T21:28:29.343Z,12.10
2022-08-14T21:31:32.731Z,9.65
2022-08-14T21:34:41.961Z,13.23
2022-08-14T21:37:57.912Z,11.80
2022-08-14T21:41:02.375Z,12.38
2022-08-14T21:44:24.675Z,10.63
2022-08-14T21:47:45.895Z,14.07
2022-08-14T21:51:00.893Z,12.38
2022-08-14T21:54:32.243Z,12.90
2022-08-14T21:58:03.990Z,13.25
2022-08-14T22:01:05.023Z,10.23
2022-08-14T22:04:33.568Z,10.43
2022-08-14T22:07:36.803Z,17.45
2022-08-14T22:10:44.874Z,14.35
2022-08-14T22:13:49.097Z,10.23
2022-08-14T22:17:01.699Z,14.95
2022-08-14T22:20:16.573Z,12.98
2022-08-14T22:23:20.402Z,11.77
2022-08-14T22:26:23.014Z,8.60
2022-08-14T22:29:35.526Z,9.23
2022-08-14T22:32:56.664Z,10.32
2022-08-14T22:36:01.085Z,11.63
2022-08-14T22:39:05.539Z,13.30
2022-08-14T22:42:21.108Z,8.32
2022-08-14T22:45:24.183Z,14.57
2022-08-14T22:48:38.912Z,14.32
2022-08-14T22:51:48.209Z,11.43
2022-08-14T22:54:53.794Z,8.57
2022-08-14T22:57:56.176Z,10.88
2022-08-14T23:01:01.378Z,12.02
2022-08-14T23:04:04.890Z,12.38
2022-08-14T23:07:14.417Z,11.00
2022-08-14T23:10:31.731Z,11.95
2022-08-14T23:13:38.914Z,9.38
2022-08-14T23:16:42.638Z,9.05
2022-08-14T23:19:45.172Z,17.52
2022-08-14T23:22:51.491Z,17.48
2022-08-14T23:26:00.621Z,14.85
2022-08-14T23:29:20.282Z,16.25
2022-08-14T23:32:24.879Z,15.63
2022-08-14T23:35:27.940Z,9.90
2022-08-14T23:38:31.442Z,9.52
2022-08-14T23:41:47.124Z,10.57
2022-08-14T23:44:55.581Z,10.32
2022-08-14T23:47:58.566Z,10.20
2022-08-14T23:51:02.448Z,15.55
2022-08-14T23:54:05.060Z,12.85
2022-08-14T23:57:08.968Z,13.55
